sensor_id;sensor_type;location;lat;lon;timestamp;P1;durP1;ratioP1;P2;durP2;ratioP2
76459;SDS011;65299;46.084;18.762;2023-12-20T00:02:32;41.00;;;15.57;;
76459;SDS011;65299;46.084;18.762;2023-12-20T00:05:33;41.28;;;18.55;;
76459;SDS011;65299;46.084;18.762;2023-12-20T00:08:34;43.00;;;19.10;;
76459;SDS011;65299;46.084;18.762;2023-12-20T00:11:34;36.80;;;15.77;;
76459;SDS011;65299;46.084;18.762;2023-12-20T00:14:35;32.60;;;13.63;;
76459;SDS011;65299;46.084;18.762;2023-12-20T00:17:35;53.83;;;20.87;;
76459;SDS011;65299;46.084;18.762;2023-12-20T00:20:36;42.00;;;19.03;;
76459;SDS011;65299;46.084;18.762;2023-12-20T00:23:36;42.10;;;17.88;;
76459;SDS011;65299;46.084;18.762;2023-12-20T00:26:37;39.87;;;16.33;;
76459;SDS011;65299;46.084;18.762;2023-12-20T00:29:37;60.93;;;22.07;;
76459;SDS011;65299;46.084;18.762;2023-12-20T00:32:38;45.10;;;18.17;;
76459;SDS011;65299;46.084;18.762;2023-12-20T00:35:38;44.55;;;20.00;;
76459;SDS011;65299;46.084;18.762;2023-12-20T00:38:38;46.20;;;19.97;;
76459;SDS011;65299;46.084;18.762;2023-12-20T00:41:39;46.20;;;20.00;;
76459;SDS011;65299;46.084;18.762;2023-12-20T00:44:39;42.90;;;18.23;;
76459;SDS011;65299;46.084;18.762;2023-12-20T00:47:40;45.00;;;18.13;;
76459;SDS011;65299;46.084;18.762;2023-12-20T00:50:40;39.37;;;17.17;;
76459;SDS011;65299;46.084;18.762;2023-12-20T00:53:41;42.50;;;18.60;;
76459;SDS011;65299;46.084;18.762;2023-12-20T00:56:41;44.90;;;17.67;;
76459;SDS011;65299;46.084;18.762;2023-12-20T00:59:41;43.00;;;17.67;;
76459;SDS011;65299;46.084;18.762;2023-12-20T01:02:42;45.33;;;17.60;;
76459;SDS011;65299;46.084;18.762;2023-12-20T01:05:42;46.40;;;19.67;;
76459;SDS011;65299;46.084;18.762;2023-12-20T01:08:43;47.57;;;18.83;;
76459;SDS011;65299;46.084;18.762;2023-12-20T01:11:43;39.13;;;16.60;;
76459;SDS011;65299;46.084;18.762;2023-12-20T01:14:43;40.53;;;17.80;;
76459;SDS011;65299;46.084;18.762;2023-12-20T01:17:44;44.87;;;19.10;;
76459;SDS011;65299;46.084;18.762;2023-12-20T01:20:44;37.97;;;16.33;;
76459;SDS011;65299;46.084;18.762;2023-12-20T01:23:45;40.45;;;16.85;;
76459;SDS011;65299;46.084;18.762;2023-12-20T01:26:45;40.30;;;17.33;;
76459;SDS011;65299;46.084;18.762;2023-12-20T01:29:45;41.17;;;15.80;;
76459;SDS011;65299;46.084;18.762;2023-12-20T01:32:46;44.83;;;18.90;;
76459;SDS011;65299;46.084;18.762;2023-12-20T01:35:46;54.65;;;22.55;;
76459;SDS011;65299;46.084;18.762;2023-12-20T01:38:47;44.17;;;18.67;;
76459;SDS011;65299;46.084;18.762;2023-12-20T01:41:47;48.20;;;20.53;;
76459;SDS011;65299;46.084;18.762;2023-12-20T01:44:47;44.27;;;18.97;;
76459;SDS011;65299;46.084;18.762;2023-12-20T01:47:48;44.63;;;19.07;;
76459;SDS011;65299;46.084;18.762;2023-12-20T01:50:48;47.75;;;18.67;;
76459;SDS011;65299;46.084;18.762;2023-12-20T01:53:49;54.63;;;21.87;;
76459;SDS011;65299;46.084;18.762;2023-12-20T01:56:49;49.67;;;19.52;;
76459;SDS011;65299;46.084;18.762;2023-12-20T01:59:50;49.03;;;20.37;;
76459;SDS011;65299;46.084;18.762;2023-12-20T02:02:51;49.10;;;19.20;;
76459;SDS011;65299;46.084;18.762;2023-12-20T02:05:53;48.70;;;20.00;;
76459;SDS011;65299;46.084;18.762;2023-12-20T02:08:54;43.20;;;18.58;;
76459;SDS011;65299;46.084;18.762;2023-12-20T02:11:55;57.43;;;20.90;;
76459;SDS011;65299;46.084;18.762;2023-12-20T02:14:55;52.73;;;20.80;;
76459;SDS011;65299;46.084;18.762;2023-12-20T02:17:56;50.83;;;21.20;;
76459;SDS011;65299;46.084;18.762;2023-12-20T02:20:56;56.63;;;23.25;;
76459;SDS011;65299;46.084;18.762;2023-12-20T02:23:57;48.37;;;21.13;;
76459;SDS011;65299;46.084;18.762;2023-12-20T02:26:57;51.93;;;22.17;;
76459;SDS011;65299;46.084;18.762;2023-12-20T02:29:58;57.47;;;23.73;;
76459;SDS011;65299;46.084;18.762;2023-12-20T02:33:02;48.93;;;20.90;;
76459;SDS011;65299;46.084;18.762;2023-12-20T02:36:07;46.17;;;20.25;;
76459;SDS011;65299;46.084;18.762;2023-12-20T02:39:07;56.07;;;22.40;;
76459;SDS011;65299;46.084;18.762;2023-12-20T02:42:08;53.75;;;22.20;;
76459;SDS011;65299;46.084;18.762;2023-12-20T02:45:08;52.43;;;22.90;;
76459;SDS011;65299;46.084;18.762;2023-12-20T02:48:09;59.53;;;21.87;;
76459;SDS011;65299;46.084;18.762;2023-12-20T02:51:09;48.85;;;21.33;;
76459;SDS011;65299;46.084;18.762;2023-12-20T02:54:10;56.23;;;22.87;;
76459;SDS011;65299;46.084;18.762;2023-12-20T02:57:10;53.00;;;21.90;;
76459;SDS011;65299;46.084;18.762;2023-12-20T03:00:10;49.50;;;20.73;;
76459;SDS011;65299;46.084;18.762;2023-12-20T03:03:11;52.50;;;22.87;;
76459;SDS011;65299;46.084;18.762;2023-12-20T03:06:15;49.83;;;21.90;;
76459;SDS011;65299;46.084;18.762;2023-12-20T03:09:17;51.10;;;21.98;;
76459;SDS011;65299;46.084;18.762;2023-12-20T03:12:17;52.97;;;21.27;;
76459;SDS011;65299;46.084;18.762;2023-12-20T03:15:17;61.20;;;23.80;;
76459;SDS011;65299;46.084;18.762;2023-12-20T03:18:18;59.90;;;24.23;;
76459;SDS011;65299;46.084;18.762;2023-12-20T03:21:18;57.20;;;24.10;;
76459;SDS011;65299;46.084;18.762;2023-12-20T03:24:19;63.50;;;24.83;;
76459;SDS011;65299;46.084;18.762;2023-12-20T03:27:19;61.35;;;24.40;;
76459;SDS011;65299;46.084;18.762;2023-12-20T03:30:19;63.27;;;25.10;;
76459;SDS011;65299;46.084;18.762;2023-12-20T03:33:20;65.57;;;25.43;;
76459;SDS011;65299;46.084;18.762;2023-12-20T03:36:20;59.10;;;25.13;;
76459;SDS011;65299;46.084;18.762;2023-12-20T03:39:21;61.65;;;24.70;;
76459;SDS011;65299;46.084;18.762;2023-12-20T03:42:21;58.43;;;24.20;;
76459;SDS011;65299;46.084;18.762;2023-12-20T03:45:22;57.53;;;25.00;;
76459;SDS011;65299;46.084;18.762;2023-12-20T03:48:22;58.50;;;24.37;;
76459;SDS011;65299;46.084;18.762;2023-12-20T03:51:22;68.25;;;26.10;;
76459;SDS011;65299;46.084;18.762;2023-12-20T03:54:23;53.43;;;22.80;;
76459;SDS011;65299;46.084;18.762;2023-12-20T03:57:24;56.85;;;23.95;;
76459;SDS011;65299;46.084;18.762;2023-12-20T04:00:24;58.67;;;22.83;;
76459;SDS011;65299;46.084;18.762;2023-12-20T04:03:25;60.63;;;22.97;;
76459;SDS011;65299;46.084;18.762;2023-12-20T04:06:25;64.77;;;26.07;;
76459;SDS011;65299;46.084;18.762;2023-12-20T04:09:25;59.27;;;25.63;;
76459;SDS011;65299;46.084;18.762;2023-12-20T04:12:27;65.80;;;25.45;;
76459;SDS011;65299;46.084;18.762;2023-12-20T04:15:28;58.03;;;25.33;;
76459;SDS011;65299;46.084;18.762;2023-12-20T04:18:28;62.67;;;24.65;;
76459;SDS011;65299;46.084;18.762;2023-12-20T04:21:29;59.23;;;22.87;;
76459;SDS011;65299;46.084;18.762;2023-12-20T04:24:29;63.03;;;23.93;;
76459;SDS011;65299;46.084;18.762;2023-12-20T04:27:29;55.03;;;23.30;;
76459;SDS011;65299;46.084;18.762;2023-12-20T04:30:30;59.92;;;24.98;;
76459;SDS011;65299;46.084;18.762;2023-12-20T04:33:30;51.70;;;21.53;;
76459;SDS011;65299;46.084;18.762;2023-12-20T04:36:30;57.70;;;23.90;;
76459;SDS011;65299;46.084;18.762;2023-12-20T04:39:31;64.53;;;25.43;;
76459;SDS011;65299;46.084;18.762;2023-12-20T04:42:31;63.73;;;24.83;;
76459;SDS011;65299;46.084;18.762;2023-12-20T04:45:32;62.63;;;24.85;;
76459;SDS011;65299;46.084;18.762;2023-12-20T04:48:32;58.03;;;23.57;;
76459;SDS011;65299;46.084;18.762;2023-12-20T04:51:33;69.10;;;25.87;;
76459;SDS011;65299;46.084;18.762;2023-12-20T04:54:34;83.35;;;30.98;;
76459;SDS011;65299;46.084;18.762;2023-12-20T04:57:35;84.13;;;31.50;;
76459;SDS011;65299;46.084;18.762;2023-12-20T05:00:35;78.28;;;29.45;;
76459;SDS011;65299;46.084;18.762;2023-12-20T05:03:35;61.97;;;25.90;;
76459;SDS011;65299;46.084;18.762;2023-12-20T05:06:36;75.97;;;30.57;;
76459;SDS011;65299;46.084;18.762;2023-12-20T05:09:36;65.00;;;26.33;;
76459;SDS011;65299;46.084;18.762;2023-12-20T05:12:37;59.17;;;23.75;;
76459;SDS011;65299;46.084;18.762;2023-12-20T05:15:37;70.80;;;27.27;;
76459;SDS011;65299;46.084;18.762;2023-12-20T05:18:38;76.47;;;28.53;;
76459;SDS011;65299;46.084;18.762;2023-12-20T05:21:38;88.90;;;33.45;;
76459;SDS011;65299;46.084;18.762;2023-12-20T05:24:38;75.67;;;29.30;;
76459;SDS011;65299;46.084;18.762;2023-12-20T05:27:39;77.73;;;28.97;;
76459;SDS011;65299;46.084;18.762;2023-12-20T05:30:40;73.55;;;25.85;;
76459;SDS011;65299;46.084;18.762;2023-12-20T05:33:40;75.73;;;30.93;;
76459;SDS011;65299;46.084;18.762;2023-12-20T05:36:41;84.30;;;32.97;;
76459;SDS011;65299;46.084;18.762;2023-12-20T05:39:41;71.43;;;29.23;;
76459;SDS011;65299;46.084;18.762;2023-12-20T05:42:41;69.70;;;27.88;;
76459;SDS011;65299;46.084;18.762;2023-12-20T05:45:42;69.53;;;29.27;;
76459;SDS011;65299;46.084;18.762;2023-12-20T05:48:42;68.03;;;26.30;;
76459;SDS011;65299;46.084;18.762;2023-12-20T05:51:43;78.00;;;30.50;;
76459;SDS011;65299;46.084;18.762;2023-12-20T05:54:43;67.03;;;25.65;;
76459;SDS011;65299;46.084;18.762;2023-12-20T05:57:44;96.47;;;33.23;;
76459;SDS011;65299;46.084;18.762;2023-12-20T06:00:44;110.90;;;34.33;;
76459;SDS011;65299;46.084;18.762;2023-12-20T06:03:44;80.77;;;31.00;;
76459;SDS011;65299;46.084;18.762;2023-12-20T06:06:46;65.22;;;25.20;;
76459;SDS011;65299;46.084;18.762;2023-12-20T06:09:46;82.00;;;29.13;;
76459;SDS011;65299;46.084;18.762;2023-12-20T06:12:46;87.18;;;31.55;;
76459;SDS011;65299;46.084;18.762;2023-12-20T06:15:50;90.35;;;30.10;;
76459;SDS011;65299;46.084;18.762;2023-12-20T06:18:51;71.37;;;24.80;;
76459;SDS011;65299;46.084;18.762;2023-12-20T06:21:51;50.63;;;19.73;;
76459;SDS011;65299;46.084;18.762;2023-12-20T06:28:48;75.20;;;26.90;;
76459;SDS011;65299;46.084;18.762;2023-12-20T06:31:48;93.75;;;29.33;;
76459;SDS011;65299;46.084;18.762;2023-12-20T06:34:48;62.07;;;23.27;;
76459;SDS011;65299;46.084;18.762;2023-12-20T06:37:49;58.10;;;20.57;;
76459;SDS011;65299;46.084;18.762;2023-12-20T06:40:49;61.97;;;23.00;;
76459;SDS011;65299;46.084;18.762;2023-12-20T06:43:50;67.40;;;24.23;;
76459;SDS011;65299;46.084;18.762;2023-12-20T06:46:51;48.63;;;18.95;;
76459;SDS011;65299;46.084;18.762;2023-12-20T06:49:52;65.57;;;22.97;;
76459;SDS011;65299;46.084;18.762;2023-12-20T06:52:52;79.83;;;27.13;;
76459;SDS011;65299;46.084;18.762;2023-12-20T06:55:52;80.87;;;27.33;;
76459;SDS011;65299;46.084;18.762;2023-12-20T06:58:53;75.70;;;25.58;;
76459;SDS011;65299;46.084;18.762;2023-12-20T07:01:54;76.07;;;25.07;;
76459;SDS011;65299;46.084;18.762;2023-12-20T07:04:54;39.63;;;16.70;;
76459;SDS011;65299;46.084;18.762;2023-12-20T07:07:54;66.72;;;23.48;;
76459;SDS011;65299;46.084;18.762;2023-12-20T07:10:55;50.33;;;19.40;;
76459;SDS011;65299;46.084;18.762;2023-12-20T07:13:55;64.93;;;22.47;;
76459;SDS011;65299;46.084;18.762;2023-12-20T07:16:56;78.40;;;24.77;;
76459;SDS011;65299;46.084;18.762;2023-12-20T07:19:57;57.80;;;20.95;;
76459;SDS011;65299;46.084;18.762;2023-12-20T07:22:57;64.38;;;22.58;;
76459;SDS011;65299;46.084;18.762;2023-12-20T07:25:58;46.33;;;17.13;;
76459;SDS011;65299;46.084;18.762;2023-12-20T07:28:58;52.87;;;20.10;;
76459;SDS011;65299;46.084;18.762;2023-12-20T07:31:58;53.00;;;21.03;;
76459;SDS011;65299;46.084;18.762;2023-12-20T07:34:59;51.15;;;19.70;;
76459;SDS011;65299;46.084;18.762;2023-12-20T07:37:59;48.67;;;18.50;;
76459;SDS011;65299;46.084;18.762;2023-12-20T07:41:00;62.13;;;23.17;;
76459;SDS011;65299;46.084;18.762;2023-12-20T07:44:01;60.03;;;21.90;;
76459;SDS011;65299;46.084;18.762;2023-12-20T07:47:01;55.83;;;21.43;;
76459;SDS011;65299;46.084;18.762;2023-12-20T07:50:02;58.90;;;22.17;;
76459;SDS011;65299;46.084;18.762;2023-12-20T07:53:03;60.97;;;22.63;;
76459;SDS011;65299;46.084;18.762;2023-12-20T07:56:13;56.90;;;18.50;;
76459;SDS011;65299;46.084;18.762;2023-12-20T07:59:17;61.00;;;21.15;;
76459;SDS011;65299;46.084;18.762;2023-12-20T08:02:18;66.03;;;21.88;;
76459;SDS011;65299;46.084;18.762;2023-12-20T08:05:18;66.37;;;22.03;;
76459;SDS011;65299;46.084;18.762;2023-12-20T08:08:19;51.37;;;18.67;;
76459;SDS011;65299;46.084;18.762;2023-12-20T08:11:19;49.50;;;18.13;;
76459;SDS011;65299;46.084;18.762;2023-12-20T08:14:20;49.10;;;19.63;;
76459;SDS011;65299;46.084;18.762;2023-12-20T08:17:21;52.77;;;18.97;;
76459;SDS011;65299;46.084;18.762;2023-12-20T08:20:23;56.92;;;19.27;;
76459;SDS011;65299;46.084;18.762;2023-12-20T08:23:23;54.47;;;21.55;;
76459;SDS011;65299;46.084;18.762;2023-12-20T08:26:24;42.10;;;16.70;;
76459;SDS011;65299;46.084;18.762;2023-12-20T08:29:24;74.80;;;26.67;;
76459;SDS011;65299;46.084;18.762;2023-12-20T08:32:30;49.93;;;15.70;;
76459;SDS011;65299;46.084;18.762;2023-12-20T08:35:32;59.25;;;20.98;;
76459;SDS011;65299;46.084;18.762;2023-12-20T08:38:32;42.47;;;17.83;;
76459;SDS011;65299;46.084;18.762;2023-12-20T08:41:34;35.17;;;15.17;;
76459;SDS011;65299;46.084;18.762;2023-12-20T08:44:38;53.42;;;16.27;;
76459;SDS011;65299;46.084;18.762;2023-12-20T08:47:48;53.95;;;19.85;;
76459;SDS011;65299;46.084;18.762;2023-12-20T08:50:49;61.20;;;21.93;;
76459;SDS011;65299;46.084;18.762;2023-12-20T08:53:51;36.80;;;12.13;;
76459;SDS011;65299;46.084;18.762;2023-12-20T08:56:52;63.33;;;22.03;;
76459;SDS011;65299;46.084;18.762;2023-12-20T08:59:52;56.30;;;19.17;;
76459;SDS011;65299;46.084;18.762;2023-12-20T09:02:54;69.45;;;20.67;;
76459;SDS011;65299;46.084;18.762;2023-12-20T09:05:54;64.95;;;20.45;;
76459;SDS011;65299;46.084;18.762;2023-12-20T09:08:55;54.93;;;19.77;;
76459;SDS011;65299;46.084;18.762;2023-12-20T09:11:55;62.40;;;21.00;;
76459;SDS011;65299;46.084;18.762;2023-12-20T09:14:56;57.83;;;19.75;;
76459;SDS011;65299;46.084;18.762;2023-12-20T09:17:56;52.80;;;19.20;;
76459;SDS011;65299;46.084;18.762;2023-12-20T09:20:57;49.80;;;18.33;;
76459;SDS011;65299;46.084;18.762;2023-12-20T09:23:57;56.33;;;19.02;;
76459;SDS011;65299;46.084;18.762;2023-12-20T09:26:58;59.17;;;20.17;;
76459;SDS011;65299;46.084;18.762;2023-12-20T09:29:59;56.05;;;18.33;;
76459;SDS011;65299;46.084;18.762;2023-12-20T09:33:00;58.23;;;21.23;;
76459;SDS011;65299;46.084;18.762;2023-12-20T09:36:00;44.10;;;17.60;;
76459;SDS011;65299;46.084;18.762;2023-12-20T09:39:01;60.20;;;21.90;;
76459;SDS011;65299;46.084;18.762;2023-12-20T09:42:02;53.17;;;18.00;;
76459;SDS011;65299;46.084;18.762;2023-12-20T09:45:04;49.95;;;19.23;;
76459;SDS011;65299;46.084;18.762;2023-12-20T09:48:09;67.32;;;19.30;;
76459;SDS011;65299;46.084;18.762;2023-12-20T09:51:10;37.50;;;15.27;;
76459;SDS011;65299;46.084;18.762;2023-12-20T09:54:15;47.50;;;17.77;;
76459;SDS011;65299;46.084;18.762;2023-12-20T09:57:17;50.80;;;18.92;;
76459;SDS011;65299;46.084;18.762;2023-12-20T10:00:18;69.95;;;23.00;;
76459;SDS011;65299;46.084;18.762;2023-12-20T10:03:18;64.60;;;22.07;;
76459;SDS011;65299;46.084;18.762;2023-12-20T10:06:24;61.88;;;19.55;;
76459;SDS011;65299;46.084;18.762;2023-12-20T10:09:24;57.63;;;19.63;;
76459;SDS011;65299;46.084;18.762;2023-12-20T10:12:26;48.15;;;17.83;;
76459;SDS011;65299;46.084;18.762;2023-12-20T10:15:26;41.17;;;13.10;;
76459;SDS011;65299;46.084;18.762;2023-12-20T10:18:28;45.83;;;15.90;;
76459;SDS011;65299;46.084;18.762;2023-12-20T10:21:29;51.15;;;19.38;;
76459;SDS011;65299;46.084;18.762;2023-12-20T10:24:30;58.72;;;21.02;;
76459;SDS011;65299;46.084;18.762;2023-12-20T10:27:31;55.30;;;21.08;;
76459;SDS011;65299;46.084;18.762;2023-12-20T10:30:31;62.70;;;20.73;;
76459;SDS011;65299;46.084;18.762;2023-12-20T10:33:31;56.17;;;20.27;;
76459;SDS011;65299;46.084;18.762;2023-12-20T10:36:32;48.43;;;17.50;;
76459;SDS011;65299;46.084;18.762;2023-12-20T10:39:33;51.97;;;18.70;;
76459;SDS011;65299;46.084;18.762;2023-12-20T10:42:34;61.40;;;21.30;;
76459;SDS011;65299;46.084;18.762;2023-12-20T10:45:37;56.75;;;19.75;;
76459;SDS011;65299;46.084;18.762;2023-12-20T10:48:38;46.27;;;16.83;;
76459;SDS011;65299;46.084;18.762;2023-12-20T10:51:40;52.20;;;18.85;;
76459;SDS011;65299;46.084;18.762;2023-12-20T10:54:42;61.22;;;19.42;;
76459;SDS011;65299;46.084;18.762;2023-12-20T10:57:42;50.67;;;17.50;;
76459;SDS011;65299;46.084;18.762;2023-12-20T11:00:50;61.47;;;23.00;;
76459;SDS011;65299;46.084;18.762;2023-12-20T11:04:08;50.10;;;18.17;;
76459;SDS011;65299;46.084;18.762;2023-12-20T11:07:31;46.33;;;17.23;;
76459;SDS011;65299;46.084;18.762;2023-12-20T11:10:43;65.90;;;22.52;;
76459;SDS011;65299;46.084;18.762;2023-12-20T11:14:07;46.97;;;18.03;;
76459;SDS011;65299;46.084;18.762;2023-12-20T11:17:13;59.47;;;19.05;;
76459;SDS011;65299;46.084;18.762;2023-12-20T11:20:17;72.28;;;25.13;;
76459;SDS011;65299;46.084;18.762;2023-12-20T11:23:18;77.23;;;28.77;;
76459;SDS011;65299;46.084;18.762;2023-12-20T11:26:22;41.38;;;17.35;;
76459;SDS011;65299;46.084;18.762;2023-12-20T11:29:31;55.47;;;20.00;;
76459;SDS011;65299;46.084;18.762;2023-12-20T11:32:34;56.22;;;19.10;;
76459;SDS011;65299;46.084;18.762;2023-12-20T11:35:36;65.38;;;22.17;;
76459;SDS011;65299;46.084;18.762;2023-12-20T11:38:56;66.93;;;24.27;;
76459;SDS011;65299;46.084;18.762;2023-12-20T11:42:04;59.92;;;18.83;;
76459;SDS011;65299;46.084;18.762;2023-12-20T11:45:10;55.40;;;18.57;;
76459;SDS011;65299;46.084;18.762;2023-12-20T11:48:11;57.63;;;21.70;;
76459;SDS011;65299;46.084;18.762;2023-12-20T11:51:13;50.03;;;18.88;;
76459;SDS011;65299;46.084;18.762;2023-12-20T11:54:15;54.78;;;18.23;;
76459;SDS011;65299;46.084;18.762;2023-12-20T11:57:16;50.83;;;17.40;;
76459;SDS011;65299;46.084;18.762;2023-12-20T12:00:17;48.90;;;17.65;;
76459;SDS011;65299;46.084;18.762;2023-12-20T12:03:18;44.00;;;16.57;;
76459;SDS011;65299;46.084;18.762;2023-12-20T12:06:18;44.08;;;17.60;;
76459;SDS011;65299;46.084;18.762;2023-12-20T12:09:19;47.17;;;17.80;;
76459;SDS011;65299;46.084;18.762;2023-12-20T12:12:19;55.57;;;19.83;;
76459;SDS011;65299;46.084;18.762;2023-12-20T12:15:20;51.63;;;17.35;;
76459;SDS011;65299;46.084;18.762;2023-12-20T12:18:21;54.72;;;18.58;;
76459;SDS011;65299;46.084;18.762;2023-12-20T12:21:33;50.03;;;16.60;;
76459;SDS011;65299;46.084;18.762;2023-12-20T12:25:37;49.90;;;16.67;;
76459;SDS011;65299;46.084;18.762;2023-12-20T12:28:46;48.55;;;16.48;;
76459;SDS011;65299;46.084;18.762;2023-12-20T12:31:53;51.40;;;17.58;;
76459;SDS011;65299;46.084;18.762;2023-12-20T12:34:55;47.28;;;17.83;;
76459;SDS011;65299;46.084;18.762;2023-12-20T12:37:55;52.73;;;18.70;;
76459;SDS011;65299;46.084;18.762;2023-12-20T12:41:00;66.07;;;27.75;;
76459;SDS011;65299;46.084;18.762;2023-12-20T12:44:00;54.30;;;21.30;;
76459;SDS011;65299;46.084;18.762;2023-12-20T12:47:02;45.30;;;18.45;;
76459;SDS011;65299;46.084;18.762;2023-12-20T12:50:03;48.05;;;19.13;;
76459;SDS011;65299;46.084;18.762;2023-12-20T12:53:04;44.35;;;17.67;;
76459;SDS011;65299;46.084;18.762;2023-12-20T12:56:05;45.13;;;18.33;;
76459;SDS011;65299;46.084;18.762;2023-12-20T12:59:06;48.53;;;18.40;;
76459;SDS011;65299;46.084;18.762;2023-12-20T13:02:06;51.13;;;20.00;;
76459;SDS011;65299;46.084;18.762;2023-12-20T13:05:07;60.03;;;20.10;;
76459;SDS011;65299;46.084;18.762;2023-12-20T13:08:08;53.23;;;18.30;;
76459;SDS011;65299;46.084;18.762;2023-12-20T13:11:09;56.22;;;21.88;;
76459;SDS011;65299;46.084;18.762;2023-12-20T13:14:10;60.20;;;22.93;;
76459;SDS011;65299;46.084;18.762;2023-12-20T13:17:15;57.78;;;20.63;;
76459;SDS011;65299;46.084;18.762;2023-12-20T13:20:16;51.63;;;20.00;;
76459;SDS011;65299;46.084;18.762;2023-12-20T13:23:17;51.30;;;18.77;;
76459;SDS011;65299;46.084;18.762;2023-12-20T13:26:20;56.10;;;20.73;;
76459;SDS011;65299;46.084;18.762;2023-12-20T13:29:21;51.53;;;19.80;;
76459;SDS011;65299;46.084;18.762;2023-12-20T13:32:21;51.07;;;20.63;;
76459;SDS011;65299;46.084;18.762;2023-12-20T13:35:22;55.08;;;23.50;;
76459;SDS011;65299;46.084;18.762;2023-12-20T13:38:26;55.40;;;23.80;;
76459;SDS011;65299;46.084;18.762;2023-12-20T13:41:27;54.63;;;22.73;;
76459;SDS011;65299;46.084;18.762;2023-12-20T13:44:27;58.93;;;24.20;;
76459;SDS011;65299;46.084;18.762;2023-12-20T13:47:28;53.37;;;21.57;;
76459;SDS011;65299;46.084;18.762;2023-12-20T13:50:29;53.90;;;22.13;;
76459;SDS011;65299;46.084;18.762;2023-12-20T13:53:29;47.83;;;21.45;;
76459;SDS011;65299;46.084;18.762;2023-12-20T13:56:30;54.67;;;22.80;;
76459;SDS011;65299;46.084;18.762;2023-12-20T13:59:30;51.03;;;21.97;;
76459;SDS011;65299;46.084;18.762;2023-12-20T14:02:31;47.88;;;20.60;;
76459;SDS011;65299;46.084;18.762;2023-12-20T14:05:31;55.37;;;21.30;;
76459;SDS011;65299;46.084;18.762;2023-12-20T14:08:35;47.38;;;20.63;;
76459;SDS011;65299;46.084;18.762;2023-12-20T14:11:36;45.27;;;20.17;;
76459;SDS011;65299;46.084;18.762;2023-12-20T14:14:41;50.72;;;21.05;;
76459;SDS011;65299;46.084;18.762;2023-12-20T14:17:41;55.47;;;21.67;;
76459;SDS011;65299;46.084;18.762;2023-12-20T14:20:42;55.20;;;22.35;;
76459;SDS011;65299;46.084;18.762;2023-12-20T14:23:47;52.53;;;22.60;;
76459;SDS011;65299;46.084;18.762;2023-12-20T14:26:56;51.00;;;21.67;;
76459;SDS011;65299;46.084;18.762;2023-12-20T14:29:58;56.03;;;22.83;;
76459;SDS011;65299;46.084;18.762;2023-12-20T14:32:59;53.67;;;23.27;;
76459;SDS011;65299;46.084;18.762;2023-12-20T14:36:00;60.17;;;23.93;;
76459;SDS011;65299;46.084;18.762;2023-12-20T14:39:00;55.35;;;23.70;;
76459;SDS011;65299;46.084;18.762;2023-12-20T14:42:02;85.07;;;31.77;;
76459;SDS011;65299;46.084;18.762;2023-12-20T14:45:03;64.63;;;27.27;;
76459;SDS011;65299;46.084;18.762;2023-12-20T14:48:04;73.32;;;29.10;;
76459;SDS011;65299;46.084;18.762;2023-12-20T14:51:05;77.57;;;31.50;;
76459;SDS011;65299;46.084;18.762;2023-12-20T14:54:06;77.03;;;31.98;;
76459;SDS011;65299;46.084;18.762;2023-12-20T14:57:10;74.70;;;32.03;;
76459;SDS011;65299;46.084;18.762;2023-12-20T15:00:10;95.88;;;41.55;;
76459;SDS011;65299;46.084;18.762;2023-12-20T15:03:16;92.35;;;41.90;;
76459;SDS011;65299;46.084;18.762;2023-12-20T15:06:17;79.10;;;35.23;;
76459;SDS011;65299;46.084;18.762;2023-12-20T15:09:20;99.43;;;40.88;;
76459;SDS011;65299;46.084;18.762;2023-12-20T15:12:21;90.35;;;36.55;;
76459;SDS011;65299;46.084;18.762;2023-12-20T15:15:23;105.30;;;40.47;;
76459;SDS011;65299;46.084;18.762;2023-12-20T15:18:24;101.20;;;39.78;;
76459;SDS011;65299;46.084;18.762;2023-12-20T15:21:24;97.03;;;39.13;;
76459;SDS011;65299;46.084;18.762;2023-12-20T15:24:31;92.72;;;40.10;;
76459;SDS011;65299;46.084;18.762;2023-12-20T15:27:38;92.90;;;40.80;;
76459;SDS011;65299;46.084;18.762;2023-12-20T15:30:38;95.50;;;38.47;;
76459;SDS011;65299;46.084;18.762;2023-12-20T15:33:39;96.27;;;38.50;;
76459;SDS011;65299;46.084;18.762;2023-12-20T15:36:40;106.97;;;43.00;;
76459;SDS011;65299;46.084;18.762;2023-12-20T15:39:42;98.60;;;41.05;;
76459;SDS011;65299;46.084;18.762;2023-12-20T15:42:43;82.18;;;36.88;;
76459;SDS011;65299;46.084;18.762;2023-12-20T15:45:43;91.37;;;38.00;;
76459;SDS011;65299;46.084;18.762;2023-12-20T15:48:46;86.65;;;36.55;;
76459;SDS011;65299;46.084;18.762;2023-12-20T15:51:46;87.73;;;38.70;;
76459;SDS011;65299;46.084;18.762;2023-12-20T15:54:47;106.38;;;44.22;;
76459;SDS011;65299;46.084;18.762;2023-12-20T15:57:48;96.07;;;40.47;;
76459;SDS011;65299;46.084;18.762;2023-12-20T16:00:48;94.30;;;38.20;;
76459;SDS011;65299;46.084;18.762;2023-12-20T16:03:49;104.07;;;42.33;;
76459;SDS011;65299;46.084;18.762;2023-12-20T16:06:49;101.03;;;42.50;;
76459;SDS011;65299;46.084;18.762;2023-12-20T16:09:50;94.73;;;40.93;;
76459;SDS011;65299;46.084;18.762;2023-12-20T16:12:50;103.60;;;43.17;;
76459;SDS011;65299;46.084;18.762;2023-12-20T16:15:51;104.80;;;44.30;;
76459;SDS011;65299;46.084;18.762;2023-12-20T16:18:51;105.53;;;43.47;;
76459;SDS011;65299;46.084;18.762;2023-12-20T16:21:52;116.40;;;45.77;;
76459;SDS011;65299;46.084;18.762;2023-12-20T16:24:52;108.50;;;45.47;;
76459;SDS011;65299;46.084;18.762;2023-12-20T16:27:53;97.70;;;42.28;;
76459;SDS011;65299;46.084;18.762;2023-12-20T16:30:53;103.97;;;42.47;;
76459;SDS011;65299;46.084;18.762;2023-12-20T16:33:55;95.50;;;41.47;;
76459;SDS011;65299;46.084;18.762;2023-12-20T16:36:56;98.17;;;40.87;;
76459;SDS011;65299;46.084;18.762;2023-12-20T16:39:57;99.70;;;42.42;;
76459;SDS011;65299;46.084;18.762;2023-12-20T16:42:58;96.60;;;43.57;;
76459;SDS011;65299;46.084;18.762;2023-12-20T16:45:58;124.33;;;53.20;;
76459;SDS011;65299;46.084;18.762;2023-12-20T16:48:59;116.23;;;50.40;;
76459;SDS011;65299;46.084;18.762;2023-12-20T16:51:59;114.55;;;50.92;;
76459;SDS011;65299;46.084;18.762;2023-12-20T16:55:00;135.07;;;56.57;;
76459;SDS011;65299;46.084;18.762;2023-12-20T16:58:01;154.52;;;68.18;;
76459;SDS011;65299;46.084;18.762;2023-12-20T17:01:01;144.30;;;64.47;;
76459;SDS011;65299;46.084;18.762;2023-12-20T17:04:01;161.90;;;70.67;;
76459;SDS011;65299;46.084;18.762;2023-12-20T17:07:02;165.67;;;72.07;;
76459;SDS011;65299;46.084;18.762;2023-12-20T17:10:03;181.38;;;76.05;;
76459;SDS011;65299;46.084;18.762;2023-12-20T17:13:03;168.13;;;75.50;;
76459;SDS011;65299;46.084;18.762;2023-12-20T17:16:04;164.20;;;69.83;;
76459;SDS011;65299;46.084;18.762;2023-12-20T17:19:04;199.17;;;86.37;;
76459;SDS011;65299;46.084;18.762;2023-12-20T17:22:05;207.57;;;84.30;;
76459;SDS011;65299;46.084;18.762;2023-12-20T17:25:06;202.67;;;83.63;;
76459;SDS011;65299;46.084;18.762;2023-12-20T17:28:06;192.10;;;80.10;;
76459;SDS011;65299;46.084;18.762;2023-12-20T17:31:07;176.83;;;76.50;;